Warning: Javascript must be enabled to use all the features on this page!


Page Loading - Please Wait...

* We've detected you're using a mobile device. Find our Next Generation Station Page here.
Click to hideNews Bulletins

Streamflow Measurements for the Nation


USGS 302234087501201 Mouth of Weeks Bay at Fish River Point


Baldwin County, Alabama
Hydrologic Unit Code 03160205
Latitude  30°22'34", Longitude  87°50'12" NAD83
Output formats
HTML table with channel data
HTML table without channel data
Tab-separated data with channel data
Tab-separated data without channel data
Graph of data
Reselect output format
Meas.
Number
  Date       Time Time
Datum
Measurement
Used?
  Who Measuring
Agency
Stream
flow
(ft3/s)
Gage
Height
(ft)
GH
Change
(ft)
Meas.
Duration
(hr)
Meas.
Rated
  Control Flow
Adjust.
Code
 
592012-08-31 16:29:30CDTYesTJNUSGS694012.03 0.30GoodClearNONE
582012-08-31 16:15CDTYesTJNUSGS676012.10 0.20GoodClearNONE
572012-08-31 16:01CDTYesTJNUSGS784012.14 0.20GoodClearNONE
562012-08-31 15:11:30CDTYesTJNUSGS822012.33 0.30GoodClearNONE
552012-08-31 14:35:30CDTYesTJNUSGS902012.44 0.20GoodClearNONE
542012-08-31 14:22CDTYesTJNUSGS987012.47 0.20GoodClearNONE
532012-08-31 13:59:30CDTYesTJNUSGS935012.51 0.10GoodClearNONE
522012-06-13 16:58:30CDTYesTJNUSGS534011.08 0.20GoodClearNONE
512012-06-13 16:48CDTYesTJNUSGS492011.13 0.20GoodClearNONE
502012-06-13 16:37:30CDTYesTJNUSGS432011.20 0.20GoodClearNONE
492012-06-13 16:26:30CDTYesTJNUSGS307011.22 0.20GoodClearNONE
482012-03-14 19:42:30CDTYesTJNUSGS734012.10 0.20FairClearNONE
472012-03-14 18:39:30CDTYesTJNUSGS626012.23 0.20GoodClearNONE
462012-03-14 18:28:30CDTYesTJNUSGS453012.25 0.10GoodClearNONE
452012-03-14 17:31:30CDTYesTJNUSGS-40512.36 0.10FairClearNONE
442012-03-14 16:33:30CDTYesTJNUSGS240012.33 0.30GoodClearNONE
432012-03-14 16:20:30CDTYesTJNUSGS184012.34 0.20GoodClearNONE
422012-03-14 16:04CDTYesTJNUSGS76712.34 0.10FairClearNONE
412012-03-14 15:58CDTYesTJNUSGS10512.34 0.10GoodClearNONE
402012-03-14 15:53:30CDTYesTJNUSGS-18412.34 0.10FairClearNONE
392012-03-14 15:45CDTYesTJNUSGS-97812.34 0.20GoodClearNONE
382012-03-14 15:32CDTYesTJNUSGS-211012.32 0.20GoodClearNONE
372012-03-14 15:22:30CDTYesTJNUSGS-269012.32 0.10GoodClearNONE
362012-03-14 14:40:30CDTYesTJNUSGS-426012.25 0.30GoodClearNONE
352012-03-14 12:13:30CDTYesTJNUSGS-693011.79 0.20GoodClearNONE
342012-03-14 11:58:30CDTYesTJNUSGS-637011.74 0.30GoodClearNONE
332012-03-14 11:44CDTYesTJNUSGS-597011.70 0.20GoodClearNONE
322012-03-14 10:38CDTYesTJNUSGS-548011.47 0.30GoodClearNONE
312012-03-13 21:32CDTYesTJNUSGS679011.47 0.20GoodClearNONE
302012-03-13 20:46:30CDTYesTJNUSGS763011.58 0.20GoodClearNONE
292012-03-13 19:58:30CDTYesTJNUSGS817011.76 0.20GoodClearNONE
282012-03-13 18:58CDTYesTJNUSGS803011.99 0.20GoodClearNONE
272012-03-13 18:44CDTYesTJNUSGS810012.04 0.20GoodClearNONE
262012-03-13 18:31CDTYesTJNUSGS752012.11 0.20GoodClearNONE
252012-03-13 17:30:30CDTYesTJNUSGS578012.27 0.30GoodClearNONE
242012-03-13 17:15:30CDTYesTJNUSGS562012.32 0.30GoodClearNONE
232012-03-13 16:57CDTYesTJNUSGS501012.34 0.30GoodClearNONE
222012-03-13 16:39CDTYesTJNUSGS319012.39 0.30GoodClearNONE
212012-03-13 15:41CDTYesTJNUSGS-82612.42 0.50GoodClearNONE
202012-02-29 15:58:30CSTYesTJNUSGS281012.04 0.10FairClearNONE
192012-02-29 15:49CSTYesTJNUSGS135012.06 0.20FairClearNONE
182012-02-29 15:39:30CSTYesTJNUSGS65712.06 0.10FairClearNONE
172012-02-29 15:34CSTYesTJNUSGS-13.212.07 0.10FairClearNONE
162012-02-29 15:30CSTYesTJNUSGS-30912.09 0.10FairClearNONE
152012-02-29 15:24:30CSTYesTJNUSGS-98012.08 0.10GoodClearNONE
142012-02-29 14:30:30CSTYesTJNUSGS-238012.00 0.30GoodClearNONE
132012-02-29 13:29CSTYesTJNUSGS-474011.91 0.20GoodClearNONE
122012-02-29 11:19CSTYesTJNUSGS-606011.54 0.20GoodClearNONE
112012-02-29 10:04CSTYesTJNUSGS659011.26 0.20GoodClearNONE
102012-02-29 08:56:30CSTYesTJNUSGS-433011.02 0.30GoodClearNONE
92012-02-29 08:41:30CSTYesTJNUSGS-454010.99 0.30GoodClearNONE
82012-02-28 20:43CSTYesTJNUSGS460010.95 0.20GoodClearNONE
72012-02-28 19:43:30CSTYesTJNUSGS506011.10 0.30GoodClearNONE
62012-02-28 18:38:30CSTYesTJNUSGS417011.29 0.20GoodClearNONE
52012-02-28 18:03:30CSTYesTJNUSGS334011.38 0.20GoodClearNONE
42012-02-28 17:51CSTYesTJN/DLBUSGS288011.42 0.20GoodClearNONE
32011-12-13 10:36CSTYesTJN/KGLUSGS40110.04 0.30FairClearNONE
22011-10-12 16:00CDTYesTJN/DLBUSGS-92111.94-0.010.90FairClearNONE
12011-08-09 08:27:30CDTYesTJN/KGLUSGS408012.38-0.030.60GoodClearNONE